Time,TemperatureF,DewpointF,PressureIn,WindDirection,WindDirectionDegrees,WindSpeedMPH,WindSpeedGustMPH,Humidity,HourlyPrecipIn,Conditions,Clouds,dailyrainin,SoftwareType,DateUTC
2013-02-21 11:28:00,16.9,6.8,30.46,ENE,78,0.0,1.0,64,0.00,,,0.00,Wunderground v.1.15,2013-02-21 17:28:00,
2013-02-21 11:29:00,16.9,6.8,30.46,ENE,78,0.0,1.0,64,0.00,,,0.00,Wunderground v.1.15,2013-02-21 17:29:00,
2013-02-21 11:34:00,17.2,6.4,30.46,East,80,0.0,7.0,62,0.00,,,0.00,Wunderground v.1.15,2013-02-21 17:34:00,
2013-02-21 11:39:00,17.7,6.9,30.46,East,84,0.0,6.0,62,0.00,,,0.00,Wunderground v.1.15,2013-02-21 17:39:00,
2013-02-21 11:44:00,17.9,6.3,30.46,East,86,0.0,6.0,60,0.00,,,0.00,Wunderground v.1.15,2013-02-21 17:44:00,
2013-02-21 11:49:00,18.0,6.8,30.46,East,85,0.0,6.0,61,0.00,,,0.00,Wunderground v.1.15,2013-02-21 17:49:00,
2013-02-21 11:54:00,18.5,7.6,30.45,East,84,1.0,6.0,62,0.00,,,0.00,Wunderground v.1.15,2013-02-21 17:54:00,
2013-02-21 11:59:00,19.0,7.7,30.45,East,81,0.0,6.0,61,0.00,,,0.00,Wunderground v.1.15,2013-02-21 17:59:00,
2013-02-21 12:04:00,19.5,7.5,30.45,East,81,0.0,6.0,59,0.00,,,0.00,Wunderground v.1.15,2013-02-21 18:04:00,
2013-02-21 12:09:00,20.0,8.3,30.44,East,82,0.0,6.0,60,0.00,,,0.00,Wunderground v.1.15,2013-02-21 18:09:00,
2013-02-21 12:14:00,20.4,8.3,30.44,East,82,1.0,5.0,59,0.00,,,0.00,Wunderground v.1.15,2013-02-21 18:14:00,
2013-02-21 12:19:00,21.1,8.6,30.43,East,79,0.0,7.0,58,0.00,,,0.00,Wunderground v.1.15,2013-02-21 18:19:00,
2013-02-21 12:24:00,21.4,8.5,30.43,ENE,77,0.0,7.0,57,0.00,,,0.00,Wunderground v.1.15,2013-02-21 18:24:00,
2013-02-21 12:29:00,21.3,8.0,30.42,ENE,76,2.0,8.0,56,0.00,,,0.00,Wunderground v.1.15,2013-02-21 18:29:00,
2013-02-21 12:35:00,21.3,8.0,30.42,ENE,70,5.0,9.0,56,0.00,,,0.00,Wunderground v.1.15,2013-02-21 18:35:00,
2013-02-21 12:40:00,21.2,7.9,30.41,ENE,67,1.0,4.0,56,0.00,,,0.00,Wunderground v.1.15,2013-02-21 18:40:00,
2013-02-21 12:45:00,21.3,8.8,30.41,ENE,67,0.0,5.0,58,0.00,,,0.00,Wunderground v.1.15,2013-02-21 18:45:00,
2013-02-21 12:50:00,21.3,8.4,30.40,ENE,65,0.0,2.0,57,0.00,,,0.00,Wunderground v.1.15,2013-02-21 18:50:00,
2013-02-21 12:55:00,21.5,8.6,30.40,ENE,63,0.0,8.0,57,0.00,,,0.00,Wunderground v.1.15,2013-02-21 18:55:00,
2013-02-21 13:00:00,21.4,8.5,30.40,ENE,65,2.0,2.0,57,0.00,,,0.00,Wunderground v.1.15,2013-02-21 19:00:00,
2013-02-21 13:05:00,21.3,8.0,30.39,ENE,63,5.0,9.0,56,0.00,,,0.00,Wunderground v.1.15,2013-02-21 19:05:00,
2013-02-21 13:10:00,21.5,8.6,30.39,ENE,63,3.0,7.0,57,0.00,,,0.00,Wunderground v.1.15,2013-02-21 19:10:00,
2013-02-21 13:15:00,21.5,8.6,30.39,ENE,62,2.0,7.0,57,0.00,,,0.00,Wunderground v.1.15,2013-02-21 19:15:00,
2013-02-21 13:20:00,21.7,8.8,30.39,ENE,63,3.0,4.0,57,0.00,,,0.00,Wunderground v.1.15,2013-02-21 19:20:00,
2013-02-21 13:25:00,21.5,8.2,30.39,ENE,63,0.0,7.0,56,0.00,,,0.00,Wunderground v.1.15,2013-02-21 19:25:00,
2013-02-21 13:30:00,21.4,8.1,30.39,NE,49,3.0,4.0,56,0.00,,,0.00,Wunderground v.1.15,2013-02-21 19:30:00,
2013-02-21 13:35:00,21.1,7.8,30.39,NE,55,7.0,9.0,56,0.00,,,0.00,Wunderground v.1.15,2013-02-21 19:35:00,
2013-02-21 13:40:00,21.3,8.8,30.39,ENE,57,0.0,6.0,58,0.00,,,0.00,Wunderground v.1.15,2013-02-21 19:40:00,
2013-02-21 13:45:00,21.3,8.4,30.38,ENE,61,2.0,8.0,57,0.00,,,0.00,Wunderground v.1.15,2013-02-21 19:45:00,
2013-02-21 15:45:00,20.9,8.8,30.33,ENE,65,0.0,10.0,59,0.00,,,0.00,Wunderground v.1.15,2013-02-21 21:45:00,
2013-02-21 15:50:00,20.8,9.1,30.32,NE,46,5.0,7.0,60,0.00,,,0.00,Wunderground v.1.15,2013-02-21 21:50:00,
2013-02-21 15:55:00,20.8,9.1,30.32,ENE,62,1.0,7.0,60,0.00,,,0.00,Wunderground v.1.15,2013-02-21 21:55:00,
2013-02-21 16:00:00,20.7,9.0,30.32,East,80,5.0,10.0,60,0.00,,,0.00,Wunderground v.1.15,2013-02-21 22:00:00,
2013-02-21 16:05:00,20.6,8.9,30.32,ENE,63,5.0,10.0,60,0.00,,,0.00,Wunderground v.1.15,2013-02-21 22:05:00,
2013-02-21 16:10:00,20.6,9.3,30.32,NE,53,4.0,11.0,61,0.00,,,0.00,Wunderground v.1.15,2013-02-21 22:10:00,
2013-02-21 16:16:00,20.5,8.8,30.31,ENE,61,3.0,11.0,60,0.00,,,0.00,Wunderground v.1.15,2013-02-21 22:16:00,
2013-02-21 16:21:00,20.5,9.2,30.32,ENE,61,2.0,4.0,61,0.00,,,0.00,Wunderground v.1.15,2013-02-21 22:21:00,
2013-02-21 16:26:00,20.6,9.3,30.32,ENE,67,5.0,8.0,61,0.00,,,0.00,Wunderground v.1.15,2013-02-21 22:26:00,
2013-02-21 16:31:00,20.5,9.2,30.31,ENE,59,7.0,7.0,61,0.00,,,0.00,Wunderground v.1.15,2013-02-21 22:31:00,
2013-02-21 16:36:00,20.5,9.5,30.31,ENE,74,3.0,7.0,62,0.00,,,0.00,Wunderground v.1.15,2013-02-21 22:36:00,
2013-02-21 16:41:00,20.4,9.4,30.31,ENE,57,4.0,7.0,62,0.00,,,0.00,Wunderground v.1.15,2013-02-21 22:41:00,
2013-02-21 16:46:00,20.4,9.4,30.31,ENE,71,2.0,7.0,62,0.00,,,0.00,Wunderground v.1.15,2013-02-21 22:46:00,
2013-02-21 16:51:00,20.4,9.4,30.31,ENE,76,3.0,9.0,62,0.00,,,0.00,Wunderground v.1.15,2013-02-21 22:51:00,
2013-02-21 16:56:00,20.4,9.4,30.31,NE,38,2.0,9.0,62,0.00,,,0.00,Wunderground v.1.15,2013-02-21 22:56:00,
2013-02-21 17:01:00,20.3,9.0,30.30,NE,55,3.0,9.0,61,0.00,,,0.00,Wunderground v.1.15,2013-02-21 23:01:00,
2013-02-21 17:06:00,20.2,8.9,30.30,ENE,67,0.0,13.0,61,0.00,,,0.00,Wunderground v.1.15,2013-02-21 23:06:00,
2013-02-21 17:11:00,20.1,9.2,30.29,NE,44,6.0,9.0,62,0.00,,,0.00,Wunderground v.1.15,2013-02-21 23:11:00,
2013-02-21 19:01:00,18.8,10.0,30.27,ENE,65,0.0,9.0,68,0.00,,,0.00,Wunderground v.1.15,2013-02-22 01:01:00,
2013-02-21 19:06:00,18.7,9.9,30.26,ENE,65,1.0,9.0,68,0.00,,,0.00,Wunderground v.1.15,2013-02-22 01:06:00,
2013-02-21 19:11:00,18.8,10.0,30.26,ENE,65,0.0,9.0,68,0.00,,,0.00,Wunderground v.1.15,2013-02-22 01:11:00,
2013-02-21 19:16:00,18.9,10.1,30.25,ENE,65,0.0,9.0,68,0.00,,,0.00,Wunderground v.1.15,2013-02-22 01:16:00,
2013-02-21 19:21:00,19.0,9.8,30.25,ENE,63,0.0,4.0,67,0.00,,,0.00,Wunderground v.1.15,2013-02-22 01:21:00,
2013-02-21 19:26:00,19.1,9.9,30.25,ENE,63,3.0,4.0,67,0.00,,,0.00,Wunderground v.1.15,2013-02-22 01:26:00,
2013-02-21 19:31:00,19.2,10.0,30.25,ENE,63,0.0,2.0,67,0.00,,,0.00,Wunderground v.1.15,2013-02-22 01:31:00,
2013-02-21 19:36:00,19.3,10.1,30.24,ENE,65,2.0,3.0,67,0.00,,,0.00,Wunderground v.1.15,2013-02-22 01:36:00,
2013-02-21 19:41:00,19.4,10.2,30.24,ENE,63,0.0,0.0,67,0.00,,,0.00,Wunderground v.1.15,2013-02-22 01:41:00,
2013-02-21 19:46:00,19.5,10.3,30.23,ENE,63,0.0,0.0,67,0.00,,,0.00,Wunderground v.1.15,2013-02-22 01:46:00,
2013-02-21 19:51:00,19.6,10.4,30.24,ENE,64,0.0,4.0,67,0.00,,,0.00,Wunderground v.1.15,2013-02-22 01:51:00,
2013-02-21 19:56:00,19.7,10.5,30.23,ENE,63,0.0,4.0,67,0.00,,,0.00,Wunderground v.1.15,2013-02-22 01:56:00,
2013-02-21 20:01:00,19.7,10.8,30.24,ENE,58,0.0,7.0,68,0.00,,,0.00,Wunderground v.1.15,2013-02-22 02:01:00,
2013-02-21 20:06:00,19.7,10.5,30.24,NE,56,3.0,7.0,67,0.00,,,0.00,Wunderground v.1.15,2013-02-22 02:06:00,
2013-02-21 20:11:00,19.7,10.5,30.24,ENE,57,0.0,3.0,67,0.00,,,0.00,Wunderground v.1.15,2013-02-22 02:11:00,
2013-02-21 20:16:00,19.8,10.6,30.24,ENE,57,0.0,7.0,67,0.00,,,0.00,Wunderground v.1.15,2013-02-22 02:16:00,
2013-02-21 20:21:00,19.9,10.7,30.24,ENE,57,0.0,1.0,67,0.00,,,0.00,Wunderground v.1.15,2013-02-22 02:21:00,
2013-02-21 20:26:00,20.0,10.8,30.24,ENE,57,0.0,4.0,67,0.00,,,0.00,Wunderground v.1.15,2013-02-22 02:26:00,
2013-02-21 20:31:00,19.9,10.7,30.24,NE,55,0.0,7.0,67,0.00,,,0.00,Wunderground v.1.15,2013-02-22 02:31:00,
2013-02-21 20:36:00,19.9,11.0,30.24,NE,55,0.0,7.0,68,0.00,,,0.00,Wunderground v.1.15,2013-02-22 02:36:00,
2013-02-21 20:41:00,20.0,11.1,30.24,NE,55,0.0,3.0,68,0.00,,,0.00,Wunderground v.1.15,2013-02-22 02:41:00,
2013-02-21 20:46:00,20.0,11.1,30.23,NE,56,0.0,5.0,68,0.00,,,0.00,Wunderground v.1.15,2013-02-22 02:46:00,
2013-02-21 20:51:00,20.1,11.2,30.23,NE,55,0.0,4.0,68,0.00,,,0.00,Wunderground v.1.15,2013-02-22 02:51:00,
2013-02-21 20:56:00,20.0,11.1,30.23,NE,55,0.0,5.0,68,0.00,,,0.00,Wunderground v.1.15,2013-02-22 02:56:00,